createdAt,value
2018-12-16T00:00:34.972Z,42.00
2018-12-16T00:03:02.554Z,39.33
2018-12-16T00:05:30.136Z,44.43
2018-12-16T00:07:57.773Z,48.70
2018-12-16T00:10:25.356Z,41.97
2018-12-16T00:12:52.938Z,34.17
2018-12-16T00:15:20.655Z,33.27
2018-12-16T00:17:48.225Z,34.33
2018-12-16T00:20:15.808Z,35.83
2018-12-16T00:22:43.452Z,37.73
2018-12-16T00:25:11.081Z,36.83
2018-12-16T00:27:38.653Z,34.50
2018-12-16T00:30:06.464Z,37.80
2018-12-16T00:32:34.134Z,39.07
2018-12-16T00:35:01.718Z,34.17
2018-12-16T00:37:29.436Z,34.57
2018-12-16T00:39:57.020Z,35.97
2018-12-16T00:42:24.609Z,35.90
2018-12-16T00:44:52.261Z,35.63
2018-12-16T00:47:19.845Z,35.47
2018-12-16T00:49:47.410Z,34.33
2018-12-16T00:52:15.841Z,31.37
2018-12-16T00:54:43.456Z,30.43
2018-12-16T00:57:11.032Z,32.03
2018-12-16T00:59:38.777Z,29.93
2018-12-16T01:02:06.489Z,32.33
2018-12-16T01:04:34.088Z,32.17
2018-12-16T01:07:01.732Z,32.53
2018-12-16T01:09:29.368Z,36.97
2018-12-16T01:11:56.965Z,35.83
2018-12-16T01:14:24.846Z,32.67
2018-12-16T01:16:52.415Z,36.87
2018-12-16T01:19:20.017Z,33.97
2018-12-16T01:21:47.933Z,34.80
2018-12-16T01:24:15.556Z,34.30
2018-12-16T01:26:43.124Z,31.30
2018-12-16T01:29:11.025Z,33.40
2018-12-16T01:31:38.593Z,35.97
2018-12-16T01:34:06.186Z,38.73
2018-12-16T01:36:33.804Z,37.40
2018-12-16T01:39:01.369Z,37.67
2018-12-16T01:41:28.941Z,38.00
2018-12-16T01:43:56.681Z,39.83
2018-12-16T01:46:24.249Z,38.50
2018-12-16T01:48:51.833Z,36.20
2018-12-16T01:51:19.468Z,30.80
2018-12-16T01:53:47.030Z,29.10
2018-12-16T01:56:14.593Z,32.43
2018-12-16T01:58:42.447Z,31.13
2018-12-16T02:01:10.009Z,31.37
2018-12-16T02:03:37.574Z,30.13
2018-12-16T02:06:05.337Z,31.90
2018-12-16T02:08:32.918Z,31.70
2018-12-16T02:11:00.493Z,31.43
2018-12-16T02:13:28.322Z,30.17
2018-12-16T02:15:58.033Z,28.70
2018-12-16T02:18:25.606Z,28.80
2018-12-16T02:20:53.352Z,31.50
2018-12-16T02:23:20.905Z,28.73
2018-12-16T02:25:48.480Z,29.50
2018-12-16T02:28:16.339Z,29.83
2018-12-16T02:30:43.912Z,32.70
2018-12-16T02:33:11.489Z,34.33
2018-12-16T02:35:39.217Z,31.87
2018-12-16T02:38:06.802Z,31.60
2018-12-16T02:40:34.372Z,31.70
2018-12-16T02:43:02.022Z,33.63
2018-12-16T02:45:29.605Z,32.47
2018-12-16T02:47:57.227Z,32.00
2018-12-16T02:50:25.092Z,30.83
2018-12-16T02:52:52.818Z,31.33
2018-12-16T02:55:20.421Z,30.17
2018-12-16T02:57:48.229Z,33.80
2018-12-16T03:00:15.825Z,41.07
2018-12-16T03:02:43.397Z,36.43
2018-12-16T03:05:11.024Z,33.10
2018-12-16T03:07:38.589Z,29.33
2018-12-16T03:10:06.250Z,29.97
2018-12-16T03:12:34.155Z,28.93
2018-12-16T03:15:01.738Z,26.87
2018-12-16T03:17:29.329Z,27.97
2018-12-16T03:19:56.980Z,27.97
2018-12-16T03:22:24.566Z,28.93
2018-12-16T03:24:52.143Z,30.70
2018-12-16T03:27:19.914Z,33.33
2018-12-16T03:29:47.485Z,33.40
2018-12-16T03:32:15.127Z,31.47
2018-12-16T03:34:42.733Z,32.70
2018-12-16T03:37:10.293Z,31.63
2018-12-16T03:39:37.870Z,36.97
2018-12-16T03:42:05.532Z,34.60
2018-12-16T03:44:33.124Z,36.43
2018-12-16T03:47:00.692Z,31.87
2018-12-16T03:49:28.318Z,31.70
2018-12-16T03:51:55.883Z,32.07
2018-12-16T03:54:23.453Z,30.20
2018-12-16T03:56:51.237Z,30.70
2018-12-16T03:59:18.908Z,31.00
2018-12-16T04:02:01.311Z,33.10
2018-12-16T04:04:28.900Z,42.50
2018-12-16T04:06:56.482Z,45.87
2018-12-16T04:09:24.208Z,40.47
2018-12-16T04:11:51.788Z,36.00
2018-12-16T04:14:19.367Z,36.80
2018-12-16T04:16:46.977Z,32.97
2018-12-16T04:19:14.537Z,37.03
2018-12-16T04:21:42.109Z,35.90
2018-12-16T04:24:09.863Z,33.03
2018-12-16T04:26:37.425Z,35.43
2018-12-16T04:29:05.037Z,34.73
2018-12-16T04:31:32.846Z,35.17
2018-12-16T04:34:00.404Z,30.83
2018-12-16T04:36:27.967Z,30.53
2018-12-16T04:38:55.587Z,30.87
2018-12-16T04:41:23.156Z,29.53
2018-12-16T04:43:50.747Z,29.80
2018-12-16T04:46:18.611Z,29.10
2018-12-16T04:48:46.221Z,34.50
2018-12-16T04:51:13.801Z,33.37
2018-12-16T04:53:41.696Z,32.30
2018-12-16T04:56:09.272Z,32.30
2018-12-16T04:58:36.918Z,32.50
2018-12-16T05:01:04.841Z,31.97
2018-12-16T05:03:32.428Z,32.57
2018-12-16T05:06:00.211Z,31.63
2018-12-16T05:08:27.972Z,34.63
2018-12-16T05:10:55.541Z,40.70
2018-12-16T05:13:23.116Z,43.97
2018-12-16T05:15:51.165Z,41.43
2018-12-16T05:18:18.728Z,40.43
2018-12-16T05:20:46.310Z,46.83
2018-12-16T05:23:15.066Z,38.00
2018-12-16T05:25:42.633Z,38.33
2018-12-16T05:28:10.197Z,41.77
2018-12-16T05:30:37.962Z,42.13
2018-12-16T05:33:05.594Z,50.00
2018-12-16T05:35:33.182Z,54.70
2018-12-16T05:38:00.869Z,53.87
2018-12-16T05:40:28.437Z,64.73
2018-12-16T05:42:56.000Z,114.10
2018-12-16T05:45:23.832Z,95.00
2018-12-16T05:47:51.421Z,91.60
2018-12-16T05:50:19.057Z,85.73
2018-12-16T05:52:46.804Z,81.67
2018-12-16T05:55:14.366Z,62.80
2018-12-16T05:57:41.937Z,52.80
2018-12-16T06:00:09.790Z,78.67
2018-12-16T06:02:37.370Z,90.20
2018-12-16T06:05:05.015Z,58.53
2018-12-16T06:07:32.885Z,64.13
2018-12-16T06:10:00.453Z,58.03
2018-12-16T06:12:28.034Z,64.40
2018-12-16T06:14:55.684Z,69.13
2018-12-16T06:17:23.269Z,171.03
2018-12-16T06:19:50.857Z,215.57
2018-12-16T06:22:18.505Z,273.63
2018-12-16T06:24:46.104Z,154.17
2018-12-16T06:27:13.717Z,156.03
2018-12-16T06:29:41.501Z,84.13
2018-12-16T06:32:09.286Z,96.27
2018-12-16T06:34:36.873Z,83.63
2018-12-16T06:37:04.517Z,107.27
2018-12-16T06:39:32.094Z,57.37
2018-12-16T06:41:59.666Z,60.20
2018-12-16T06:44:27.455Z,61.63
2018-12-16T06:46:55.034Z,74.43
2018-12-16T06:49:22.609Z,75.20
2018-12-16T06:51:50.440Z,92.20
2018-12-16T06:54:18.013Z,103.00
2018-12-16T06:56:45.617Z,111.43
2018-12-16T06:59:13.245Z,87.87
2018-12-16T07:01:40.813Z,94.90
2018-12-16T07:04:08.395Z,94.70
2018-12-16T07:06:36.105Z,132.73
2018-12-16T07:09:03.820Z,122.17
2018-12-16T07:11:31.388Z,117.07
2018-12-16T07:13:59.988Z,135.27
2018-12-16T07:16:27.564Z,120.47
2018-12-16T07:18:55.181Z,109.90
2018-12-16T07:21:22.964Z,103.47
2018-12-16T07:23:50.524Z,97.77
2018-12-16T07:26:18.113Z,77.97
2018-12-16T07:28:45.800Z,65.60
2018-12-16T07:31:13.374Z,62.17
2018-12-16T07:33:40.966Z,69.03
2018-12-16T07:36:08.817Z,69.63
2018-12-16T07:38:36.397Z,63.97
2018-12-16T07:41:04.038Z,72.57
2018-12-16T07:43:31.917Z,66.47
2018-12-16T07:45:59.553Z,62.23
2018-12-16T07:48:27.189Z,69.07
2018-12-16T07:50:55.084Z,71.53
2018-12-16T07:53:22.666Z,63.63
2018-12-16T07:55:50.417Z,77.33
2018-12-16T07:58:18.259Z,106.77
2018-12-16T08:00:45.853Z,96.73
2018-12-16T08:03:13.416Z,124.67
2018-12-16T08:05:41.352Z,153.70
2018-12-16T08:08:08.933Z,121.60
2018-12-16T08:10:36.529Z,128.93
2018-12-16T08:13:04.169Z,136.60
2018-12-16T08:15:31.757Z,152.67
2018-12-16T08:17:59.345Z,126.50
2018-12-16T08:20:26.948Z,108.47
2018-12-16T08:22:54.540Z,144.80
2018-12-16T08:25:22.114Z,113.17
2018-12-16T08:27:49.737Z,115.73
2018-12-16T08:30:17.318Z,114.83
2018-12-16T08:32:44.920Z,112.03
2018-12-16T08:35:12.679Z,124.67
2018-12-16T08:37:40.253Z,136.83
2018-12-16T08:40:07.862Z,149.23
2018-12-16T08:42:35.468Z,71.63
2018-12-16T08:45:04.476Z,56.40
2018-12-16T08:47:33.248Z,61.47
2018-12-16T08:49:58.709Z,68.07
2018-12-16T08:52:26.344Z,71.63
2018-12-16T08:54:53.907Z,74.23
2018-12-16T08:57:21.556Z,91.93
2018-12-16T08:59:49.121Z,99.03
2018-12-16T09:02:16.708Z,94.73
2018-12-16T09:04:47.446Z,79.17
2018-12-16T09:07:15.010Z,74.23
2018-12-16T09:09:42.654Z,67.87
2018-12-16T09:12:10.532Z,67.77
2018-12-16T09:14:38.123Z,61.23
2018-12-16T09:17:05.685Z,83.83
2018-12-16T09:19:33.514Z,66.23
2018-12-16T09:22:01.136Z,174.97
2018-12-16T09:24:28.721Z,129.63
2018-12-16T09:26:56.809Z,71.63
2018-12-16T09:29:24.377Z,68.57
2018-12-16T09:31:51.954Z,67.67
2018-12-16T09:34:19.583Z,63.17
2018-12-16T09:36:47.150Z,69.73
2018-12-16T09:39:15.481Z,105.40
2018-12-16T09:41:43.316Z,109.30
2018-12-16T09:44:10.880Z,84.03
2018-12-16T09:46:38.489Z,77.53
2018-12-16T09:49:06.144Z,90.47
2018-12-16T09:51:33.746Z,67.80
2018-12-16T09:54:01.334Z,72.97
2018-12-16T09:56:29.153Z,75.10
2018-12-16T09:58:56.737Z,78.27
2018-12-16T10:01:24.324Z,88.17
2018-12-16T10:03:52.141Z,111.00
2018-12-16T10:06:19.737Z,96.50
2018-12-16T10:08:47.326Z,113.20
2018-12-16T10:11:15.220Z,94.07
2018-12-16T10:13:42.798Z,84.10
2018-12-16T10:16:10.382Z,84.40
2018-12-16T10:18:38.082Z,72.60
2018-12-16T10:21:05.665Z,55.13
2018-12-16T10:23:33.253Z,80.20
2018-12-16T10:26:00.897Z,81.47
2018-12-16T10:28:28.469Z,138.33
2018-12-16T10:30:56.054Z,169.63
2018-12-16T10:33:23.843Z,165.93
2018-12-16T10:35:51.416Z,185.73
2018-12-16T10:38:18.990Z,200.97
2018-12-16T10:40:46.678Z,169.77
2018-12-16T10:43:14.262Z,140.83
2018-12-16T10:45:41.846Z,199.40
2018-12-16T10:48:09.510Z,163.30
2018-12-16T10:50:37.479Z,139.80
2018-12-16T10:53:05.056Z,148.20
2018-12-16T10:55:33.006Z,135.17
2018-12-16T10:58:00.585Z,116.23
2018-12-16T11:03:22.385Z,143.07
2018-12-16T11:05:50.145Z,97.43
2018-12-16T11:08:17.713Z,73.23
2018-12-16T11:10:45.394Z,91.10
2018-12-16T11:13:13.085Z,79.43
2018-12-16T11:15:40.658Z,76.00
2018-12-16T11:18:08.265Z,71.03
2018-12-16T11:20:36.119Z,63.07
2018-12-16T11:23:03.744Z,59.40
2018-12-16T11:25:31.325Z,63.63
2018-12-16T11:27:59.098Z,66.23
2018-12-16T11:30:26.701Z,62.70
2018-12-16T11:32:54.326Z,73.30
2018-12-16T11:35:22.280Z,74.23
2018-12-16T11:37:49.858Z,59.30
2018-12-16T11:40:17.434Z,79.20
2018-12-16T11:42:45.173Z,82.67
2018-12-16T11:45:12.826Z,84.87
2018-12-16T11:47:40.397Z,84.90
2018-12-16T11:50:08.126Z,108.67
2018-12-16T11:52:35.727Z,91.80
2018-12-16T11:55:04.221Z,74.33
2018-12-16T11:57:32.101Z,63.50
2018-12-16T11:59:59.680Z,71.10
2018-12-16T12:02:32.752Z,58.27
2018-12-16T12:04:55.249Z,54.53
2018-12-16T12:07:22.810Z,51.10
2018-12-16T12:09:50.388Z,47.47
2018-12-16T12:12:18.129Z,55.43
2018-12-16T12:14:45.710Z,49.37
2018-12-16T12:17:13.294Z,51.07
2018-12-16T12:19:41.221Z,58.67
2018-12-16T12:22:08.857Z,67.37
2018-12-16T12:24:36.441Z,57.70
2018-12-16T12:27:04.112Z,54.20
2018-12-16T12:29:31.675Z,48.70
2018-12-16T12:31:59.301Z,59.37
2018-12-16T12:34:27.553Z,60.03
2018-12-16T12:36:55.153Z,47.07
2018-12-16T12:39:22.753Z,45.17
2018-12-16T12:41:50.514Z,39.23
2018-12-16T12:44:18.153Z,44.60
2018-12-16T12:46:46.981Z,36.63
2018-12-16T12:49:14.631Z,41.20
2018-12-16T12:51:42.206Z,39.50
2018-12-16T12:54:09.789Z,38.07
2018-12-16T12:56:37.609Z,110.17
2018-12-16T12:59:05.173Z,41.67
2018-12-16T13:01:32.760Z,44.80
2018-12-16T13:04:00.405Z,50.97
2018-12-16T13:06:27.982Z,49.33
2018-12-16T13:08:55.566Z,58.13
2018-12-16T13:11:23.202Z,32.57
2018-12-16T13:13:50.811Z,50.63
2018-12-16T13:16:18.421Z,106.80
2018-12-16T13:18:46.229Z,41.87
2018-12-16T13:21:14.013Z,64.73
2018-12-16T13:23:41.602Z,51.73
2018-12-16T13:26:09.301Z,46.87
2018-12-16T13:28:36.983Z,48.20
2018-12-16T13:31:05.528Z,47.73
2018-12-16T13:33:33.657Z,14.37
2018-12-16T13:36:01.314Z,6.77
2018-12-16T13:38:28.910Z,11.07
2018-12-16T13:40:56.761Z,9.60
2018-12-16T13:43:25.344Z,13.83
2018-12-16T13:45:52.948Z,8.87
2018-12-16T13:48:20.882Z,7.73
2018-12-16T13:50:48.437Z,16.83
2018-12-16T13:53:16.927Z,10.80
2018-12-16T13:55:44.614Z,15.00
2018-12-16T13:58:12.204Z,12.77
2018-12-16T14:00:39.835Z,16.10
2018-12-16T14:03:07.469Z,18.20
2018-12-16T14:05:35.603Z,15.13
2018-12-16T14:08:03.199Z,13.00
2018-12-16T14:10:31.169Z,13.23
2018-12-16T14:12:58.749Z,14.17
2018-12-16T14:15:26.331Z,9.87
2018-12-16T14:17:54.875Z,11.20
2018-12-16T14:20:22.440Z,13.57
2018-12-16T14:22:49.999Z,2.13
2018-12-16T14:25:17.804Z,0.20
2018-12-16T14:27:45.365Z,0.57
2018-12-16T14:30:12.992Z,0.20
2018-12-16T14:32:40.776Z,0.20
2018-12-16T14:35:08.473Z,0.20
2018-12-16T14:37:36.037Z,0.10
2018-12-16T14:40:03.758Z,0.17
2018-12-16T14:42:31.320Z,0.20
2018-12-16T14:44:58.872Z,0.27
2018-12-16T14:47:26.777Z,1.20
2018-12-16T14:49:54.341Z,0.20
2018-12-16T14:52:21.913Z,0.30
2018-12-16T14:54:49.546Z,0.20
2018-12-16T14:57:17.153Z,0.10
2018-12-16T14:59:44.731Z,0.20
2018-12-16T15:02:12.577Z,0.50
2018-12-16T15:04:40.165Z,0.20
2018-12-16T15:07:07.792Z,0.20
2018-12-16T15:09:35.557Z,0.20
2018-12-16T15:12:03.133Z,0.10
2018-12-16T16:09:19.343Z,0.20
2018-12-16T16:11:46.928Z,0.20
2018-12-16T16:14:14.568Z,0.13
2018-12-16T16:16:42.335Z,0.67
2018-12-16T16:19:09.913Z,0.20
2018-12-16T16:21:37.503Z,0.23
2018-12-16T16:24:06.294Z,0.30
2018-12-16T16:26:33.877Z,0.20
2018-12-16T16:29:01.471Z,0.20
2018-12-16T16:31:29.116Z,0.30
2018-12-16T16:34:00.194Z,0.20
2018-12-16T16:36:27.753Z,0.73
2018-12-16T16:38:55.493Z,0.30
2018-12-16T16:41:23.063Z,0.30
2018-12-16T16:43:57.426Z,0.60
2018-12-16T16:46:25.126Z,0.20
2018-12-16T16:48:52.720Z,0.27
2018-12-16T16:51:20.746Z,0.57
2018-12-16T16:57:05.894Z,0.20
2018-12-16T16:59:33.483Z,0.20
2018-12-16T17:02:01.086Z,0.30
2018-12-16T17:04:28.725Z,0.20
2018-12-16T17:06:56.341Z,0.20
2018-12-16T17:09:23.914Z,0.20
2018-12-16T17:11:51.640Z,0.20
2018-12-16T17:14:19.239Z,0.20
2018-12-16T17:16:46.809Z,0.30
2018-12-16T17:19:14.498Z,0.70
2018-12-16T17:21:45.131Z,0.20
2018-12-16T17:24:12.720Z,7.40
2018-12-16T17:26:40.450Z,0.20
2018-12-16T17:29:08.032Z,0.10
2018-12-16T17:31:35.592Z,0.20
2018-12-16T17:34:03.840Z,0.20
2018-12-16T17:36:31.426Z,0.20
2018-12-16T17:38:59.001Z,0.20
2018-12-16T17:41:26.925Z,0.20
2018-12-16T17:43:54.533Z,0.17
2018-12-16T17:46:22.131Z,0.20
2018-12-16T17:48:49.772Z,0.20
2018-12-16T17:51:17.364Z,0.10
2018-12-16T17:53:44.943Z,0.10
2018-12-16T17:56:12.723Z,0.20
2018-12-16T17:58:40.381Z,16.33
2018-12-16T18:01:07.966Z,14.40
2018-12-16T18:03:35.830Z,13.80
2018-12-16T18:06:04.489Z,14.93
2018-12-16T18:08:31.045Z,18.00
2018-12-16T18:10:58.826Z,14.00
2018-12-16T18:13:26.403Z,24.07
2018-12-16T18:15:53.993Z,15.87
2018-12-16T18:18:21.617Z,16.33
2018-12-16T18:20:49.616Z,15.33
2018-12-16T18:23:17.214Z,17.67
2018-12-16T18:25:44.925Z,16.30
2018-12-16T18:28:12.501Z,18.17
2018-12-16T18:30:40.095Z,12.97
2018-12-16T18:33:07.834Z,17.70
2018-12-16T18:35:35.426Z,10.63
2018-12-16T18:38:03.096Z,14.47
2018-12-16T18:40:30.945Z,8.97
2018-12-16T18:42:58.538Z,13.23
2018-12-16T18:45:26.153Z,16.63
2018-12-16T18:47:53.992Z,11.53
2018-12-16T18:50:21.625Z,11.73
2018-12-16T18:52:49.225Z,22.47
2018-12-16T18:55:21.147Z,21.30
2018-12-16T18:57:48.741Z,11.10
2018-12-16T19:00:16.415Z,15.70
2018-12-16T19:02:44.163Z,9.30
2018-12-16T19:05:11.819Z,11.40
2018-12-16T19:07:39.424Z,11.57
2018-12-16T19:10:07.327Z,9.13
2018-12-16T19:12:34.923Z,13.07
2018-12-16T19:15:02.589Z,12.40
2018-12-16T19:17:30.460Z,12.47
2018-12-16T19:19:58.045Z,12.90
2018-12-16T19:22:25.633Z,13.93
2018-12-16T19:24:54.166Z,17.67
2018-12-16T19:27:21.773Z,22.20
2018-12-16T19:29:49.372Z,34.17
2018-12-16T19:32:17.117Z,23.63
2018-12-16T19:34:44.701Z,19.77
2018-12-16T19:37:12.279Z,21.67
2018-12-16T19:39:40.023Z,15.57
2018-12-16T19:42:07.598Z,26.13
2018-12-16T19:44:35.179Z,33.53
2018-12-16T19:47:02.979Z,27.20
2018-12-16T19:49:30.581Z,24.83
2018-12-16T19:51:58.169Z,20.80
2018-12-16T19:54:26.510Z,17.73
2018-12-16T19:56:55.194Z,32.43
2018-12-16T19:59:22.821Z,19.40
2018-12-16T20:01:50.592Z,14.27
2018-12-16T20:04:18.241Z,16.07
2018-12-16T20:06:45.917Z,16.97
2018-12-16T20:09:13.785Z,17.70
2018-12-16T20:11:42.496Z,17.63
2018-12-16T20:14:10.079Z,16.70
2018-12-16T20:16:37.880Z,18.83
2018-12-16T20:19:05.461Z,13.70
2018-12-16T20:21:33.137Z,18.30
2018-12-16T20:24:01.010Z,18.30
2018-12-16T20:26:28.572Z,16.30
2018-12-16T20:28:56.170Z,16.47
2018-12-16T20:31:23.905Z,18.77
2018-12-16T20:33:51.497Z,14.40
2018-12-16T20:36:19.095Z,26.37
2018-12-16T20:38:46.970Z,18.03
2018-12-16T20:41:14.550Z,20.17
2018-12-16T20:43:42.134Z,21.70
2018-12-16T20:46:09.867Z,22.07
2018-12-16T20:48:37.497Z,19.80
2018-12-16T20:51:05.074Z,19.30
2018-12-16T20:53:32.895Z,20.73
2018-12-16T20:56:00.479Z,18.07
2018-12-16T20:58:28.069Z,17.40
2018-12-16T21:00:55.836Z,20.47
2018-12-16T21:03:23.468Z,17.70
2018-12-16T21:05:51.055Z,16.23
2018-12-16T21:08:18.709Z,19.63
2018-12-16T21:10:46.311Z,18.03
2018-12-16T21:13:19.680Z,20.03
2018-12-16T21:15:52.677Z,23.80
2018-12-16T21:18:21.258Z,20.93
2018-12-16T21:20:48.888Z,17.03
2018-12-16T21:23:16.460Z,17.33
2018-12-16T21:25:44.110Z,19.13
2018-12-16T21:28:11.698Z,13.50
2018-12-16T21:30:39.305Z,21.00
2018-12-16T21:33:07.306Z,18.63
2018-12-16T21:35:34.902Z,21.90
2018-12-16T21:38:02.522Z,18.83
2018-12-16T21:40:30.411Z,18.83
2018-12-16T21:42:57.998Z,17.87
2018-12-16T21:45:25.591Z,18.83
2018-12-16T21:47:53.337Z,17.80
2018-12-16T21:50:20.929Z,15.97
2018-12-16T21:52:48.559Z,23.23
2018-12-16T21:55:16.301Z,18.23
2018-12-16T21:57:43.884Z,21.47
2018-12-16T22:00:11.603Z,20.27
2018-12-16T22:02:39.339Z,18.00
2018-12-16T22:05:07.017Z,19.30
2018-12-16T22:07:34.592Z,20.13
2018-12-16T22:10:02.567Z,21.40
2018-12-16T22:12:30.133Z,14.60
2018-12-16T22:14:57.717Z,17.47
2018-12-16T22:17:25.366Z,17.73
2018-12-16T22:19:52.932Z,16.43
2018-12-16T22:22:20.500Z,16.67
2018-12-16T22:24:48.137Z,15.00
2018-12-16T22:27:15.719Z,15.50
2018-12-16T22:29:43.285Z,14.83
2018-12-16T22:32:10.981Z,11.10
2018-12-16T22:34:49.795Z,16.07
2018-12-16T22:37:17.499Z,17.03
2018-12-16T22:39:45.096Z,14.17
2018-12-16T22:42:12.697Z,16.90
2018-12-16T22:44:40.518Z,17.97
2018-12-16T22:47:08.101Z,18.10
2018-12-16T22:49:35.678Z,16.73
2018-12-16T22:52:03.646Z,17.20
2018-12-16T22:54:31.204Z,19.27
2018-12-16T22:56:58.771Z,14.40
2018-12-16T22:59:26.627Z,21.70
2018-12-16T23:01:54.283Z,17.10
2018-12-16T23:04:21.916Z,18.10
2018-12-16T23:06:49.669Z,13.57
2018-12-16T23:09:17.255Z,15.40
2018-12-16T23:11:44.877Z,13.43
2018-12-16T23:14:12.583Z,16.30
2018-12-16T23:16:40.168Z,16.70
2018-12-16T23:19:07.741Z,18.47
2018-12-16T23:21:35.475Z,17.43
2018-12-16T23:24:03.049Z,18.97
2018-12-16T23:26:30.635Z,17.97
2018-12-16T23:28:58.370Z,19.33
2018-12-16T23:31:25.957Z,17.13
2018-12-16T23:33:53.526Z,18.50
2018-12-16T23:36:21.231Z,17.47
2018-12-16T23:38:48.802Z,18.50
2018-12-16T23:41:16.376Z,18.27
2018-12-16T23:43:44.102Z,17.47
2018-12-16T23:46:11.692Z,17.47
2018-12-16T23:48:39.277Z,18.50
2018-12-16T23:51:07.033Z,17.03
2018-12-16T23:53:34.606Z,18.37
2018-12-16T23:56:02.180Z,18.20
